OMFJ/FJR METAR and TAF weather

Enter ICAO airport designator
Station Type Date Time Source
OMFJ METAR 2019/08/22 20:00 UTC NOAA

OMFJ 222000Z 16002KT 7000 NSC 31/26 Q1003 A2962


Station Type Date Time Source
OMFJ Decoded METAR 2019/08/22 20:00 UTC NOAA

Station name not available
Aug 22, 2019 - 04:00 PM EDT / 2019.08.22 2000 UTC
Wind: from the SSE (160 degrees) at 2 MPH (2 KT):0
Visibility: 4 mile(s):0
Temperature: 87 F (31 C)
Heat index: 99.7 F (37.6 C):1
Dew Point: 78 F (26 C)
Relative Humidity: 74%
Pressure (altimeter): 29.62 in. Hg (1003 hPa)
ob: OMFJ 222000Z 16002KT 7000 NSC 31/26 Q1003 A2962
cycle: 20

Station Type Date Time Source
OMFJ TAF 2019/08/22 18:03 UTC NOAA

TAF TAF OMFJ 221700Z 2218/2324 VRB03KT 7000 NSC
TEMPO 2222/2303 5000 HZ SCT016
BECMG 2304/2306 09008KT
BECMG 2314/2316 15005KT

Example: see airport list